Time;durP1;ratioP1;P1;durP2;ratioP2;P2;SDS_P1;SDS_P2;PMS_P1;PMS_P2;Temp;Humidity;BMP_temperature;BMP_pressure;BME280_temperature;BME280_humidity;BME280_pressure;Samples;Min_cycle;Max_cycle;Signal;HPM_P1;HPM_P2
2023/04/09 00:00:43;;;;;;;;;31.75;30.00;;;;;13.27;51.26;101770.84;2083863;28;46453;-62
2023/04/09 00:01:43;;;;;;;;;32.75;30.50;;;;;13.25;51.17;101771.75;2081756;28;46986;-62
2023/04/09 00:02:44;;;;;;;;;32.50;29.50;;;;;13.26;51.11;101772.63;2071545;28;46499;-64
2023/04/09 00:03:44;;;;;;;;;31.75;30.25;;;;;13.26;51.25;101769.97;2070880;28;46106;-63
2023/04/09 00:04:44;;;;;;;;;28.00;28.00;;;;;13.26;51.25;101767.31;2082848;28;46850;-62
2023/04/09 00:05:45;;;;;;;;;35.25;31.25;;;;;13.24;51.20;101766.44;2086675;28;46108;-63
2023/04/09 00:06:45;;;;;;;;;33.25;30.50;;;;;13.24;51.28;101771.78;2087176;28;46977;-63
2023/04/09 00:07:45;;;;;;;;;30.25;27.50;;;;;13.22;51.25;101771.81;2085087;28;46833;-61
2023/04/09 00:08:46;;;;;;;;;34.25;30.75;;;;;13.23;51.22;101762.03;2087420;28;46315;-63
2023/04/09 00:09:46;;;;;;;;;32.75;30.75;;;;;13.22;51.31;101770.94;2083303;28;46565;-63
2023/04/09 00:10:46;;;;;;;;;30.00;27.25;;;;;13.22;51.37;101769.13;2078967;28;46826;-62
2023/04/09 00:11:46;;;;;;;;;24.75;24.50;;;;;13.22;51.37;101765.59;2079219;28;45884;-63
2023/04/09 00:12:47;;;;;;;;;29.75;27.25;;;;;13.22;51.29;101762.94;2079327;28;46870;-61
2023/04/09 00:13:47;;;;;;;;;32.00;27.50;;;;;13.21;51.29;101762.06;2096915;28;46701;-62
2023/04/09 00:14:47;;;;;;;;;32.00;29.00;;;;;13.20;51.28;101757.59;2087443;28;46467;-63
2023/04/09 00:15:48;;;;;;;;;28.75;27.25;;;;;13.21;51.37;101761.13;2088451;28;46723;-62
2023/04/09 00:16:48;;;;;;;;;31.25;29.25;;;;;13.21;51.32;101758.47;2094344;28;46551;-63
2023/04/09 00:17:49;;;;;;;;;33.50;30.25;;;;;13.21;51.44;101759.38;2096568;28;46336;-63
2023/04/09 00:18:50;;;;;;;;;31.75;28.25;;;;;13.21;51.22;101762.06;2104228;28;46700;-63
2023/04/09 00:19:50;;;;;;;;;30.00;28.20;;;;;13.20;51.32;101754.94;2088416;28;47109;-63
2023/04/09 00:20:51;;;;;;;;;32.75;29.25;;;;;13.20;51.30;101751.38;2095241;28;46602;-62
2023/04/09 00:21:51;;;;;;;;;26.75;26.75;;;;;13.19;51.15;101753.16;2092116;28;46581;-63
2023/04/09 00:22:51;;;;;;;;;27.75;26.75;;;;;13.18;51.25;101750.50;2096186;28;45723;-62
2023/04/09 00:23:52;;;;;;;;;30.50;28.75;;;;;13.17;51.25;101754.94;2095225;28;46125;-62
2023/04/09 00:24:52;;;;;;;;;30.25;29.00;;;;;13.16;51.02;101755.84;2088399;28;46683;-62
2023/04/09 00:25:52;;;;;;;;;32.25;28.50;;;;;13.15;51.46;101751.44;2095178;28;46322;-62
2023/04/09 00:26:53;;;;;;;;;27.75;27.75;;;;;13.16;51.42;101752.31;2103936;28;46452;-61
2023/04/09 00:27:54;;;;;;;;;30.50;29.50;;;;;13.16;51.33;101754.97;2096597;28;46291;-63
2023/04/09 00:28:54;;;;;;;;;28.80;27.60;;;;;13.16;51.32;101754.97;2096476;28;46385;-62
2023/04/09 00:29:55;;;;;;;;;30.75;30.25;;;;;13.15;51.46;101750.56;2077733;28;46840;-62
2023/04/09 00:30:56;;;;;;;;;31.00;28.25;;;;;13.14;51.36;101748.78;2080689;28;45938;-63
2023/04/09 00:31:56;;;;;;;;;28.00;23.00;;;;;13.13;51.32;101749.72;2078351;28;46674;-64
2023/04/09 00:32:56;;;;;;;;;31.75;30.00;;;;;13.10;51.55;101750.63;2079066;28;46039;-63
2023/04/09 00:33:57;;;;;;;;;33.00;31.25;;;;;13.10;51.65;101753.31;2081450;28;45868;-62
2023/04/09 00:34:57;;;;;;;;;24.25;23.50;;;;;13.08;51.48;101752.41;2086268;28;46439;-63
2023/04/09 00:35:57;;;;;;;;;30.00;28.50;;;;;13.08;51.51;101749.75;2079063;28;46173;-63
2023/04/09 00:36:58;;;;;;;;;36.50;30.50;;;;;13.08;51.49;101749.75;2079046;28;46294;-62
2023/04/09 00:37:58;;;;;;;;;37.75;31.00;;;;;13.10;51.50;101747.09;2078423;28;46274;-63
2023/04/09 00:38:59;;;;;;;;;30.50;29.25;;;;;13.09;51.53;101750.66;2058800;28;46312;-62
2023/04/09 00:39:59;;;;;;;;;30.00;28.75;;;;;13.08;51.47;101746.22;2054832;28;46784;-62
2023/04/09 00:41:00;;;;;;;;;37.75;33.00;;;;;13.07;51.57;101749.78;2078551;28;45559;-63
2023/04/09 00:42:03;;;;;;;;;31.50;29.75;;;;;13.07;51.54;101750.66;2078678;28;46851;-61
2023/04/09 00:43:05;;;;;;;;;29.40;27.20;;;;;13.06;51.68;101750.69;2078890;28;46154;-62
2023/04/09 00:44:05;;;;;;;;;29.60;27.20;;;;;13.05;51.50;101743.59;2077206;28;46870;-62
2023/04/09 00:45:07;;;;;;;;;29.75;27.50;;;;;13.04;51.60;101750.72;2078126;28;46518;-64
2023/04/09 00:46:07;;;;;;;;;33.20;31.40;;;;;13.02;51.65;101744.53;2086883;28;46024;-62
2023/04/09 00:47:08;;;;;;;;;31.00;27.25;;;;;13.01;51.58;101741.91;2071987;28;46955;-63
2023/04/09 00:48:08;;;;;;;;;31.25;28.50;;;;;13.01;51.75;101741.91;2070865;28;45453;-62
2023/04/09 00:49:08;;;;;;;;;31.25;29.50;;;;;13.00;51.75;101742.81;2086688;28;46722;-61
2023/04/09 00:50:09;;;;;;;;;33.00;31.25;;;;;12.99;51.91;101749.03;2083763;28;46466;-63
2023/04/09 00:51:10;;;;;;;;;28.50;28.00;;;;;12.96;51.68;101740.19;2086154;28;46367;-63
2023/04/09 00:52:11;;;;;;;;;28.50;27.50;;;;;12.96;51.84;101744.66;2082173;28;45394;-62
2023/04/09 00:53:11;;;;;;;;;29.20;27.80;;;;;12.95;51.92;101748.19;2083582;28;45599;-62
2023/04/09 00:54:12;;;;;;;;;25.25;25.25;;;;;12.94;51.81;101749.97;2081733;28;46822;-62
2023/04/09 00:55:13;;;;;;;;;34.75;30.00;;;;;12.93;51.76;101745.53;2079944;28;46367;-62
2023/04/09 00:56:16;;;;;;;;;26.75;26.50;;;;;12.92;51.97;101741.13;2079448;28;46046;-62
2023/04/09 00:57:17;;;;;;;;;30.00;30.00;;;;;12.92;52.04;101745.56;2078350;28;46611;-62
2023/04/09 00:58:17;;;;;;;;;29.60;27.60;;;;;12.91;51.94;101746.47;2082638;28;46670;-61
2023/04/09 00:59:18;;;;;;;;;30.25;28.75;;;;;12.90;51.87;101739.41;2086295;28;46332;-62
2023/04/09 01:00:18;;;;;;;;;34.25;31.75;;;;;12.90;52.01;101739.41;2084484;28;46339;-62
2023/04/09 01:01:19;;;;;;;;;33.50;32.00;;;;;12.91;52.06;101738.47;2085230;28;46492;-62
2023/04/09 01:02:19;;;;;;;;;29.75;27.50;;;;;12.90;52.13;101744.72;2096523;28;45414;-62
2023/04/09 01:03:20;;;;;;;;;28.75;27.25;;;;;12.91;51.94;101744.69;2095694;28;46985;-63
2023/04/09 01:04:22;;;;;;;;;31.50;29.50;;;;;12.93;52.05;101744.66;2095970;28;46685;-63
2023/04/09 01:05:30;;;;;;;;;33.00;30.20;;;;;12.93;52.05;101742.88;2095988;28;46672;-63
2023/04/09 01:06:50;;;;;;;;;34.20;31.40;;;;;12.92;52.11;101738.47;2095813;28;46573;-63
2023/04/09 01:08:06;;;;;;;;;39.20;33.20;;;;;12.92;52.00;101737.59;2096374;28;46766;-61
2023/04/09 01:09:16;;;;;;;;;34.80;31.80;;;;;12.92;52.12;101730.47;2096412;28;46432;-63
2023/04/09 01:10:27;;;;;;;;;33.80;30.80;;;;;12.93;52.10;101737.56;2096418;28;45186;-63
2023/04/09 01:11:37;;;;;;;;;36.00;29.00;;;;;12.92;52.05;101738.47;2087029;28;46252;-61
2023/04/09 01:13:03;;;;;;;;;36.00;32.40;;;;;12.90;52.06;101737.59;2088964;28;46625;-64
2023/04/09 01:14:18;;;;;;;;;38.60;33.60;;;;;12.90;52.13;101742.94;2087511;28;46339;-62
2023/04/09 01:15:24;;;;;;;;;29.80;29.80;;;;;12.89;52.22;101740.31;2088218;28;46592;-63
2023/04/09 01:16:24;;;;;;;;;32.60;30.20;;;;;12.88;52.07;101733.22;2091465;28;46420;-63
2023/04/09 01:17:32;;;;;;;;;37.25;32.75;;;;;12.86;51.99;101738.56;2095742;28;46359;-63
2023/04/09 01:18:45;;;;;;;;;31.60;29.80;;;;;12.86;52.09;101740.34;2095465;28;49161;-62
2023/04/09 01:19:55;;;;;;;;;35.20;33.20;;;;;12.85;52.21;101735.94;2096035;28;46277;-63
2023/04/09 01:21:04;;;;;;;;;34.40;28.40;;;;;12.84;52.12;101735.06;2088362;28;47144;-63
2023/04/09 01:22:13;;;;;;;;;31.00;28.60;;;;;12.82;52.16;101736.81;2093999;28;46427;-62
2023/04/09 01:23:36;;;;;;;;;31.00;30.20;;;;;12.83;52.20;101743.03;2096343;28;46897;-63
2023/04/09 01:24:50;;;;;;;;;36.40;31.80;;;;;12.81;52.13;101737.72;2087822;28;46430;-63
2023/04/09 01:25:56;;;;;;;;;38.00;33.00;;;;;12.82;52.13;101743.94;2088478;28;45813;-61
2023/04/09 01:27:02;;;;;;;;;35.20;32.00;;;;;12.78;52.36;101735.13;2091658;28;46399;-62
2023/04/09 01:28:03;;;;;;;;;33.00;29.60;;;;;12.77;52.46;101743.13;2095589;28;46408;-61
2023/04/09 01:29:05;;;;;;;;;33.75;31.00;;;;;12.76;52.48;101734.28;2095498;28;46471;-61
2023/04/09 01:30:07;;;;;;;;;35.00;30.20;;;;;12.75;52.36;101737.84;2092702;28;46921;-61
2023/04/09 01:31:14;;;;;;;;;37.80;31.60;;;;;12.75;52.57;101742.28;2089300;28;47068;-62
2023/04/09 01:32:18;;;;;;;;;45.40;37.00;;;;;12.74;52.65;101740.53;2098057;28;46412;-62
2023/04/09 01:33:20;;;;;;;;;45.60;37.00;;;;;12.73;52.56;101739.66;2078528;28;46854;-62
2023/04/09 01:34:21;;;;;;;;;47.20;36.60;;;;;12.73;52.55;101739.66;2079435;28;46748;-62
2023/04/09 01:35:24;;;;;;;;;40.75;34.25;;;;;12.74;52.80;101740.53;2095793;28;46568;-61
2023/04/09 01:36:26;;;;;;;;;37.60;33.40;;;;;12.74;52.66;101740.53;2096447;28;46865;-63
2023/04/09 01:37:26;;;;;;;;;50.00;42.00;;;;;12.74;52.54;101733.41;2102088;28;46550;-62
2023/04/09 01:38:27;;;;;;;;;37.50;33.00;;;;;12.75;52.75;101739.63;2094440;28;46259;-62
2023/04/09 01:39:28;;;;;;;;;38.75;33.75;;;;;12.76;52.51;101744.03;2089553;28;46251;-62
2023/04/09 01:40:29;;;;;;;;;36.50;32.75;;;;;12.76;52.56;101730.72;2087197;28;46393;-63
2023/04/09 01:41:31;;;;;;;;;32.50;31.25;;;;;12.75;52.67;101736.97;2092557;28;46423;-63
2023/04/09 01:42:32;;;;;;;;;27.60;26.00;;;;;12.75;52.68;101740.50;2094032;28;45816;-63
2023/04/09 01:43:33;;;;;;;;;30.50;30.25;;;;;12.74;52.58;101735.19;2095436;28;46481;-63
2023/04/09 01:44:37;;;;;;;;;27.20;26.00;;;;;12.74;52.65;101736.09;2090148;28;46900;-61
2023/04/09 01:45:39;;;;;;;;;34.00;30.20;;;;;12.73;52.61;101725.44;2102528;28;46715;-63
2023/04/09 01:46:40;;;;;;;;;31.40;29.60;;;;;12.73;52.57;101736.09;2091576;28;46843;-63
2023/04/09 01:47:40;;;;;;;;;29.40;28.40;;;;;12.73;52.80;101730.78;2101508;28;46608;-62
2023/04/09 01:48:42;;;;;;;;;34.75;30.25;;;;;12.72;52.72;101731.69;2096020;28;46556;-63
2023/04/09 01:49:43;;;;;;;;;30.20;29.80;;;;;12.71;52.66;101724.59;2097354;28;47042;-61
2023/04/09 01:50:44;;;;;;;;;27.40;26.80;;;;;12.68;52.78;101726.38;2097082;28;46686;-61
2023/04/09 01:51:46;;;;;;;;;33.00;30.00;;;;;12.68;52.64;101728.16;2095674;28;45729;-62
2023/04/09 01:52:46;;;;;;;;;28.80;28.40;;;;;12.68;52.87;101728.16;2095926;28;46307;-63
2023/04/09 01:53:47;;;;;;;;;30.00;29.00;;;;;12.68;53.20;101730.81;2096816;28;46283;-62
2023/04/09 01:54:48;;;;;;;;;35.00;30.80;;;;;12.69;52.85;101727.25;2096368;28;47029;-61
2023/04/09 01:55:48;;;;;;;;;33.00;30.00;;;;;12.68;52.79;101725.50;2095888;28;46886;-63
2023/04/09 01:56:48;;;;;;;;;32.50;30.00;;;;;12.67;52.78;101732.59;2091786;28;46644;-61
2023/04/09 01:57:49;;;;;;;;;32.00;30.00;;;;;12.66;52.90;101725.53;2087893;28;46416;-62
2023/04/09 01:58:49;;;;;;;;;32.25;29.50;;;;;12.66;52.86;101728.19;2093011;28;46689;-63
2023/04/09 01:59:49;;;;;;;;;30.75;30.00;;;;;12.64;52.76;101723.78;2087679;28;46635;-61
2023/04/09 02:00:53;;;;;;;;;30.75;28.25;;;;;12.65;52.89;101723.75;2088147;28;46490;-62
2023/04/09 02:02:05;;;;;;;;;26.40;25.20;;;;;12.64;52.89;101726.47;2087773;28;46339;-62
2023/04/09 02:03:14;;;;;;;;;32.00;30.00;;;;;12.63;53.02;101722.91;2104581;28;47042;-61
2023/04/09 02:04:21;;;;;;;;;30.00;27.20;;;;;12.64;53.04;101723.78;2087691;28;45799;-61
2023/04/09 02:05:25;;;;;;;;;33.20;30.60;;;;;12.63;53.04;101724.69;2096341;28;46783;-61
2023/04/09 02:06:55;;;;;;;;;33.00;31.40;;;;;12.61;52.95;101716.72;2104375;27;46607;-62
2023/04/09 02:08:01;;;;;;;;;30.20;28.60;;;;;12.60;52.99;101720.31;2088943;28;46520;-62
2023/04/09 02:09:06;;;;;;;;;29.80;28.20;;;;;12.58;53.03;101716.78;2096456;28;46487;-61
2023/04/09 02:10:08;;;;;;;;;29.00;27.60;;;;;12.59;53.09;101715.00;2092804;28;46508;-63
2023/04/09 02:11:09;;;;;;;;;33.20;29.20;;;;;12.59;53.05;101715.00;2089049;28;46831;-63
2023/04/09 02:12:13;;;;;;;;;29.60;28.00;;;;;12.58;53.01;101716.78;2088544;28;47013;-62
2023/04/09 02:13:17;;;;;;;;;28.20;28.20;;;;;12.58;53.15;101713.25;2088870;28;46304;-61
2023/04/09 02:14:19;;;;;;;;;33.20;30.20;;;;;12.56;53.18;101715.03;2084311;28;45917;-61
2023/04/09 02:15:20;;;;;;;;;31.00;29.20;;;;;12.56;53.23;101712.34;2081424;28;46329;-63
2023/04/09 02:16:22;;;;;;;;;30.20;29.40;;;;;12.55;53.17;101715.91;2090348;28;46570;-60
2023/04/09 02:17:22;;;;;;;;;32.40;30.60;;;;;12.54;53.32;101719.50;2102528;28;46201;-63
2023/04/09 02:18:27;;;;;;;;;27.25;26.25;;;;;12.54;53.22;101715.03;2097252;28;46109;-62
2023/04/09 02:19:39;;;;;;;;;28.40;27.60;;;;;12.51;53.32;101709.78;2104554;28;46706;-63
2023/04/09 02:20:40;;;;;;;;;32.60;30.20;;;;;12.52;53.21;101710.66;2099757;28;46213;-61
2023/04/09 02:21:40;;;;;;;;;28.50;24.75;;;;;12.50;53.42;101713.34;2098348;28;46755;-62
2023/04/09 02:22:40;;;;;;;;;27.75;27.00;;;;;12.50;53.27;101708.00;2089837;28;46847;-62
2023/04/09 02:23:40;;;;;;;;;30.00;27.00;;;;;12.50;53.33;101707.13;2089239;28;46600;-61
2023/04/09 02:24:41;;;;;;;;;30.25;27.25;;;;;12.49;53.27;101710.69;2099408;28;45942;-60
2023/04/09 02:25:43;;;;;;;;;28.25;28.25;;;;;12.50;53.54;101708.00;2097567;28;46737;-61
2023/04/09 02:26:43;;;;;;;;;35.00;30.60;;;;;12.50;53.38;101704.47;2097287;28;47190;-61
2023/04/09 02:27:43;;;;;;;;;27.25;24.50;;;;;12.52;53.38;101702.66;2091965;28;46566;-63
2023/04/09 02:28:43;;;;;;;;;33.75;28.50;;;;;12.52;53.46;101700.00;2097247;28;46802;-62
2023/04/09 02:29:45;;;;;;;;;32.00;27.25;;;;;12.53;53.46;101701.75;2098118;28;46494;-62
2023/04/09 02:30:45;;;;;;;;;33.60;27.40;;;;;12.52;53.46;101698.22;2105686;28;46865;-63
2023/04/09 02:31:45;;;;;;;;;29.25;27.75;;;;;12.53;53.36;101702.63;2098995;28;45550;-62
2023/04/09 02:32:46;;;;;;;;;30.75;30.00;;;;;12.52;53.69;101700.88;2096992;28;46200;-62
2023/04/09 02:33:46;;;;;;;;;32.25;26.25;;;;;12.52;53.21;101700.00;2099982;28;46827;-61
2023/04/09 02:34:46;;;;;;;;;35.50;32.50;;;;;12.50;53.50;101700.03;2099937;28;46624;-62
2023/04/09 02:35:47;;;;;;;;;35.25;31.00;;;;;12.49;53.46;101695.59;2096990;28;46373;-62
2023/04/09 02:36:47;;;;;;;;;32.25;30.75;;;;;12.49;53.51;101689.41;2088507;28;46145;-63
2023/04/09 02:37:47;;;;;;;;;34.75;31.25;;;;;12.51;53.41;101690.25;2090086;28;46418;-63
2023/04/09 02:38:48;;;;;;;;;30.00;28.00;;;;;12.50;53.69;101693.81;2081479;28;46919;-62
2023/04/09 02:39:48;;;;;;;;;25.50;25.50;;;;;12.51;53.63;101695.56;2082924;28;46589;-62
2023/04/09 02:40:48;;;;;;;;;29.75;27.50;;;;;12.49;53.47;101684.94;2097006;28;46282;-62
2023/04/09 02:41:49;;;;;;;;;30.25;27.00;;;;;12.49;53.46;101694.72;2097201;28;46265;-62
2023/04/09 02:42:51;;;;;;;;;32.75;29.25;;;;;12.48;53.67;101692.97;2097253;28;45999;-63
2023/04/09 02:43:51;;;;;;;;;31.40;26.80;;;;;12.46;53.50;101689.44;2098637;28;47205;-62
2023/04/09 02:44:51;;;;;;;;;27.75;26.00;;;;;12.46;53.61;101689.44;2094928;28;46474;-61
2023/04/09 02:45:52;;;;;;;;;33.75;29.25;;;;;12.45;53.70;101691.22;2087907;28;46446;-62
2023/04/09 02:46:52;;;;;;;;;32.50;29.75;;;;;12.46;53.63;101692.13;2098617;28;46473;-62
2023/04/09 02:47:52;;;;;;;;;32.75;30.25;;;;;12.46;53.66;101689.44;2097836;28;45548;-61
2023/04/09 02:48:52;;;;;;;;;30.75;29.75;;;;;12.46;53.65;101692.13;2097241;28;46412;-62
2023/04/09 02:49:53;;;;;;;;;34.00;31.00;;;;;12.47;53.77;101691.22;2097921;28;46375;-61
2023/04/09 02:50:53;;;;;;;;;35.75;31.00;;;;;12.46;53.65;101687.66;2097205;28;46761;-62
2023/04/09 02:51:53;;;;;;;;;29.50;27.75;;;;;12.46;53.63;101695.66;2099395;28;46666;-62
2023/04/09 02:52:54;;;;;;;;;33.25;32.25;;;;;12.43;53.64;101687.69;2105660;28;46436;-61
2023/04/09 02:53:54;;;;;;;;;29.25;27.25;;;;;12.45;53.79;101685.00;2089738;28;46775;-62
2023/04/09 02:54:54;;;;;;;;;31.75;29.00;;;;;12.45;53.70;101680.59;2089758;28;46970;-61
2023/04/09 02:55:55;;;;;;;;;26.50;23.25;;;;;12.45;53.75;101691.22;2104113;28;46581;-61
2023/04/09 02:56:55;;;;;;;;;29.75;28.50;;;;;12.45;53.74;101688.56;2098454;28;46204;-62
2023/04/09 02:57:55;;;;;;;;;31.50;30.75;;;;;12.45;53.76;101690.31;2101850;28;46383;-61
2023/04/09 02:58:56;;;;;;;;;34.00;32.25;;;;;12.45;53.73;101687.66;2079322;28;46574;-62
2023/04/09 02:59:56;;;;;;;;;30.75;26.00;;;;;12.45;53.78;101685.91;2079113;28;46266;-63
2023/04/09 03:00:56;;;;;;;;;30.00;28.75;;;;;12.45;53.84;101688.56;2092077;28;46441;-62
2023/04/09 03:01:57;;;;;;;;;33.25;31.25;;;;;12.45;53.60;101693.91;2096170;28;45539;-62
2023/04/09 03:02:57;;;;;;;;;29.75;28.50;;;;;12.44;53.75;101683.25;2094024;28;46933;-61
2023/04/09 03:03:59;;;;;;;;;30.75;29.00;;;;;12.42;53.78;101682.38;2095964;28;45830;-63
2023/04/09 03:05:00;;;;;;;;;35.00;32.40;;;;;12.41;53.83;101680.63;2063275;28;46902;-61
2023/04/09 03:06:00;;;;;;;;;35.50;30.00;;;;;12.40;53.56;101685.06;2062810;28;46378;-62
2023/04/09 03:07:00;;;;;;;;;31.25;29.50;;;;;12.38;53.76;101674.44;2093371;28;46167;-62
2023/04/09 03:08:01;;;;;;;;;33.25;30.50;;;;;12.37;53.81;101675.34;2071319;28;46281;-63
2023/04/09 03:09:01;;;;;;;;;33.75;28.25;;;;;12.37;53.70;101669.16;2070197;28;46643;-62
2023/04/09 03:10:02;;;;;;;;;30.00;29.00;;;;;12.36;54.07;101670.94;2071447;28;46389;-62
2023/04/09 03:11:02;;;;;;;;;36.50;33.75;;;;;12.37;53.74;101671.81;2070288;28;46219;-62
2023/04/09 03:12:02;;;;;;;;;39.75;35.50;;;;;12.36;53.92;101672.72;2071739;28;46891;-62
2023/04/09 03:13:02;;;;;;;;;32.00;30.75;;;;;12.35;53.75;101676.28;2077084;28;46524;-62
2023/04/09 03:14:03;;;;;;;;;35.50;30.00;;;;;12.33;53.95;101673.66;2075152;28;46535;-63
2023/04/09 03:15:04;;;;;;;;;33.75;31.25;;;;;12.32;53.79;101671.88;2076771;28;46151;-62
2023/04/09 03:16:04;;;;;;;;;33.25;30.75;;;;;12.32;53.99;101671.88;2074869;28;46595;-63
2023/04/09 03:17:05;;;;;;;;;35.25;30.25;;;;;12.32;53.94;101673.63;2068882;28;46578;-62
2023/04/09 03:18:05;;;;;;;;;37.00;31.75;;;;;12.31;53.98;101667.44;2075456;28;46918;-62
2023/04/09 03:19:06;;;;;;;;;37.25;33.25;;;;;12.31;54.04;101672.75;2071116;28;46370;-62
2023/04/09 03:20:06;;;;;;;;;38.00;31.75;;;;;12.30;53.99;101671.00;2066027;28;46806;-63
2023/04/09 03:21:07;;;;;;;;;34.50;30.00;;;;;12.30;53.82;101671.00;2071124;28;46366;-61
2023/04/09 03:22:08;;;;;;;;;42.80;34.20;;;;;12.29;53.89;101676.34;2073608;28;46902;-62
2023/04/09 03:23:09;;;;;;;;;47.50;38.25;;;;;12.28;54.23;101674.59;2068424;28;46559;-63
2023/04/09 03:24:10;;;;;;;;;50.40;40.20;;;;;12.25;54.06;101667.53;2071065;28;46374;-62
2023/04/09 03:25:10;;;;;;;;;37.25;32.50;;;;;12.24;54.17;101670.22;2064534;28;46697;-62
2023/04/09 03:26:10;;;;;;;;;33.50;31.00;;;;;12.22;53.91;101675.56;2069606;28;46199;-62
2023/04/09 03:27:11;;;;;;;;;31.75;29.00;;;;;12.22;54.13;101667.59;2075902;28;46387;-62
2023/04/09 03:28:11;;;;;;;;;40.00;34.00;;;;;12.21;54.05;101665.81;2075244;28;45566;-61
2023/04/09 03:29:11;;;;;;;;;36.00;32.75;;;;;12.22;54.30;101672.03;2070306;28;46029;-61
2023/04/09 03:30:12;;;;;;;;;39.00;33.50;;;;;12.20;54.39;101671.16;2071706;28;46292;-62
2023/04/09 03:31:12;;;;;;;;;37.00;32.50;;;;;12.21;54.15;101670.28;2079264;28;46590;-63
2023/04/09 03:32:13;;;;;;;;;35.75;31.25;;;;;12.19;54.31;101667.59;2079387;28;46668;-62
2023/04/09 03:33:13;;;;;;;;;38.50;33.25;;;;;12.19;54.25;101666.72;2079621;28;45838;-63
2023/04/09 03:34:13;;;;;;;;;34.75;31.75;;;;;12.18;54.35;101664.97;2079124;28;46433;-62
2023/04/09 03:35:14;;;;;;;;;33.75;31.25;;;;;12.18;54.38;101667.63;2079854;28;46689;-61
2023/04/09 03:36:14;;;;;;;;;35.50;31.25;;;;;12.18;54.40;101671.16;2078956;28;46641;-62
2023/04/09 03:37:15;;;;;;;;;40.50;33.50;;;;;12.17;54.33;101666.75;2079358;28;46423;-62
2023/04/09 03:38:15;;;;;;;;;35.75;33.00;;;;;12.18;54.32;101664.97;2079111;28;46093;-63
2023/04/09 03:39:15;;;;;;;;;39.00;33.00;;;;;12.17;54.28;101666.75;2079761;28;45841;-62
2023/04/09 03:40:16;;;;;;;;;36.25;33.00;;;;;12.16;54.14;101667.66;2078984;28;46566;-62
2023/04/09 03:41:16;;;;;;;;;34.00;32.50;;;;;12.16;54.32;101669.44;2079321;28;45807;-60
2023/04/09 03:42:16;;;;;;;;;32.50;31.50;;;;;12.15;54.29;101670.31;2096394;28;46859;-63
2023/04/09 03:43:17;;;;;;;;;35.25;31.75;;;;;12.14;54.15;101664.13;2096991;28;46655;-62
2023/04/09 03:44:17;;;;;;;;;39.25;33.50;;;;;12.14;54.66;101664.13;2096848;28;46303;-62
2023/04/09 03:45:17;;;;;;;;;40.75;34.00;;;;;12.12;54.49;101663.28;2097232;28;44981;-61
2023/04/09 03:46:18;;;;;;;;;44.50;36.25;;;;;12.11;54.26;101665.97;2096817;28;47099;-61
2023/04/09 03:47:18;;;;;;;;;37.50;33.25;;;;;12.08;54.50;101659.78;2096339;28;46766;-62
2023/04/09 03:48:19;;;;;;;;;41.50;33.50;;;;;12.07;54.48;101662.47;2096830;28;46629;-62
2023/04/09 03:49:19;;;;;;;;;35.00;32.00;;;;;12.06;54.50;101655.34;2097018;28;46236;-63
2023/04/09 03:50:19;;;;;;;;;37.50;33.25;;;;;12.04;54.71;101660.69;2095683;28;46658;-62
2023/04/09 03:51:20;;;;;;;;;38.25;33.50;;;;;12.04;54.45;101657.16;2096474;28;46674;-63
2023/04/09 03:52:20;;;;;;;;;40.25;33.00;;;;;12.03;54.47;101655.41;2096827;28;46710;-62
2023/04/09 03:53:20;;;;;;;;;34.00;30.75;;;;;12.02;54.51;101653.66;2101496;28;46039;-62
2023/04/09 03:54:21;;;;;;;;;30.75;30.00;;;;;12.00;54.76;101653.66;2104888;28;46665;-62
2023/04/09 03:55:21;;;;;;;;;38.75;33.00;;;;;12.00;54.69;101656.31;2096875;28;45546;-62
2023/04/09 03:56:22;;;;;;;;;40.25;35.50;;;;;11.97;54.52;101653.72;2095815;28;46155;-62
2023/04/09 03:57:22;;;;;;;;;43.25;36.25;;;;;11.98;54.72;101651.94;2096767;28;46106;-63
2023/04/09 03:58:22;;;;;;;;;32.50;31.00;;;;;11.96;54.75;101651.94;2096441;28;46867;-63
2023/04/09 03:59:23;;;;;;;;;35.25;31.00;;;;;11.97;54.87;101652.84;2096827;28;45721;-62
2023/04/09 04:00:23;;;;;;;;;38.25;32.50;;;;;11.96;54.68;101657.28;2096523;28;45084;-63
2023/04/09 04:01:24;;;;;;;;;41.00;33.25;;;;;11.95;54.77;101659.97;2096814;28;46528;-62
2023/04/09 04:02:25;;;;;;;;;38.50;34.75;;;;;11.95;54.79;101651.97;2101713;28;46128;-61
2023/04/09 04:03:26;;;;;;;;;35.00;32.80;;;;;11.93;54.87;101651.97;2100536;28;47198;-61
2023/04/09 04:04:26;;;;;;;;;32.75;31.25;;;;;11.93;54.84;101651.09;2097619;28;46678;-62
2023/04/09 04:05:26;;;;;;;;;39.50;33.75;;;;;11.92;54.92;101649.31;2091756;28;47071;-63
2023/04/09 04:06:27;;;;;;;;;38.50;34.00;;;;;11.91;54.79;101653.78;2080270;28;45572;-63
2023/04/09 04:07:27;;;;;;;;;35.00;32.25;;;;;11.90;55.10;101649.34;2091247;28;46506;-62
2023/04/09 04:08:28;;;;;;;;;36.50;34.00;;;;;11.91;54.62;101653.78;2090335;28;46734;-62
2023/04/09 04:09:29;;;;;;;;;37.40;28.20;;;;;11.90;54.96;101643.16;2093017;28;46606;-61
2023/04/09 04:10:29;;;;;;;;;41.00;34.00;;;;;11.89;54.87;101652.03;2097293;28;46279;-62
2023/04/09 04:11:30;;;;;;;;;33.00;31.00;;;;;11.87;55.02;101645.84;2096941;28;47283;-61
2023/04/09 04:12:31;;;;;;;;;32.75;31.50;;;;;11.85;55.23;101647.66;2098879;28;46502;-61
2023/04/09 04:13:32;;;;;;;;;40.00;34.60;;;;;11.83;55.19;101647.69;2098947;28;46921;-61
2023/04/09 04:14:32;;;;;;;;;39.75;34.75;;;;;11.84;55.28;101648.56;2087569;28;46418;-62
2023/04/09 04:15:33;;;;;;;;;40.25;35.50;;;;;11.84;55.10;101641.47;2086944;28;45071;-61
2023/04/09 04:16:33;;;;;;;;;39.75;33.75;;;;;11.84;55.08;101643.25;2096515;28;46515;-64
2023/04/09 04:17:34;;;;;;;;;33.50;31.75;;;;;11.83;55.22;101645.03;2096009;28;46156;-62
2023/04/09 04:18:35;;;;;;;;;37.75;31.50;;;;;11.83;55.28;101638.81;2098109;28;46844;-61
2023/04/09 04:19:35;;;;;;;;;38.00;33.40;;;;;11.81;54.90;101637.94;2102491;28;46871;-63
2023/04/09 04:20:37;;;;;;;;;33.75;32.00;;;;;11.81;55.06;101640.59;2097009;28;46541;-63
2023/04/09 04:21:37;;;;;;;;;40.60;34.20;;;;;11.81;55.16;101640.59;2097256;28;46091;-62
2023/04/09 04:22:37;;;;;;;;;35.25;33.75;;;;;11.78;55.28;101637.06;2096177;28;46975;-61
2023/04/09 04:23:38;;;;;;;;;34.75;31.75;;;;;11.78;55.57;101638.81;2097140;28;46554;-63
2023/04/09 04:24:38;;;;;;;;;38.50;34.00;;;;;11.79;55.39;101629.97;2096008;28;46565;-61
2023/04/09 04:25:41;;;;;;;;;42.25;34.50;;;;;11.78;55.18;101642.38;2100989;28;46300;-62
2023/04/09 04:26:41;;;;;;;;;34.40;32.40;;;;;11.79;55.44;101641.50;2101641;28;46368;-62
2023/04/09 04:27:42;;;;;;;;;42.00;35.50;;;;;11.79;55.43;101641.50;2101981;28;46293;-61
2023/04/09 04:28:42;;;;;;;;;33.25;31.00;;;;;11.79;55.23;101641.50;2096108;28;45138;-61
2023/04/09 04:29:43;;;;;;;;;39.75;34.50;;;;;11.79;55.18;101641.50;2095602;28;46718;-62
2023/04/09 04:30:43;;;;;;;;;34.75;31.50;;;;;11.79;55.25;101640.63;2096661;28;46487;-63
2023/04/09 04:31:43;;;;;;;;;32.50;31.00;;;;;11.79;55.32;101640.63;2097102;28;45574;-62
2023/04/09 04:32:44;;;;;;;;;31.50;30.25;;;;;11.77;55.14;101645.94;2090049;28;47143;-62
2023/04/09 04:33:44;;;;;;;;;43.25;34.25;;;;;11.76;55.46;101646.81;2100858;28;45881;-63
2023/04/09 04:34:48;;;;;;;;;34.25;29.50;;;;;11.76;55.36;101644.16;2099761;28;46602;-63
2023/04/09 04:35:49;;;;;;;;;40.00;34.60;;;;;11.75;55.26;101650.38;2097854;28;46561;-63
2023/04/09 04:36:49;;;;;;;;;41.00;37.00;;;;;11.76;55.41;101651.28;2097939;28;46379;-61
2023/04/09 04:37:50;;;;;;;;;40.25;34.50;;;;;11.74;55.45;101643.31;2092862;28;45776;-62
2023/04/09 04:38:50;;;;;;;;;36.75;32.75;;;;;11.71;55.14;101648.66;2087487;28;45109;-61
2023/04/09 04:39:50;;;;;;;;;37.50;33.25;;;;;11.71;55.65;101651.34;2087317;28;46332;-62
2023/04/09 04:40:51;;;;;;;;;37.75;34.00;;;;;11.71;55.41;101648.66;2087831;28;45776;-62